Hartland, North Dakota
Current Conditions -  °F | °C
As of 6:58 PM on Saturday 22 Nov 2014 (Local Time) from KMIB Reporting Station
Few Clouds Few Clouds  
Wind Chill: 31°   Ceiling: Unl
Heat Index: 37°   Visibility: 10mi
Dew Point: 31°   Wind: 7mph
Humidity: 80%   Direction: 250°WSW
Pressure: 29.24"   Gusts: NA
Location:  48.4159°N, 101.712°W
Report Text: KMIB 230058Z AUTO 25006KT 10SM FEW070 03/M01 A2924 RMK AO2 SLP926 T00261006
Loading
Personal Weather Stations






























Interactive Weather Map New forecast layout! Learn more

10-Day Weather Forecast

Advertisements
Track Severe Weather on mobile